e-bos.jp alexa rank chart, e-bos.jp alexa rank daily changes

e-bos.jp alexa rank chart, e-bos.jp alexa rank daily changes

e-bos.jp
Actual rank:
128 134

RANK HISTORY

Date Rank Diff
2017/12/06 128 134 -13 949
2017/12/05 142 083 -276
2017/12/04 142 359 -4 958
2017/12/03 147 317 +177
2017/12/02 147 140 +779
2017/12/01 146 361 -8 866
2017/11/30 155 227 -5 135
2017/11/29 160 362 +7 598
2017/11/28 152 764 -151
2017/11/27 152 915 +5 672
2017/11/26 147 243 +18
2017/11/25 147 225 -6 864
2017/11/24 154 089 -5 911
2017/11/23 160 000 +10 074
2017/11/22 149 926 +315
2017/11/21 149 611 +391
2017/11/20 149 220 -884
2017/11/19 150 104 +4 525
2017/11/18 145 579 +5 004
2017/11/17 140 575 +5 476
2017/11/16 135 099 +4 721
2017/11/15 130 378 -3 639
2017/11/14 134 017 -2 616
2017/11/13 136 633 -2 318
2017/11/12 138 951 +650
2017/11/11 138 301 -87
2017/11/10 138 388 +1 165
2017/11/09 137 223 +4 960
2017/11/08 132 263 -8 405
2017/11/07 140 668 +149
2017/11/06 140 519 +4 769
2017/11/05 135 750 +4 135
2017/11/04 131 615 -1 898
2017/11/03 133 513 +12 515
2017/11/02 120 998 -3 394
2017/11/01 124 392 -162
2017/10/31 124 554 +9 935
2017/10/30 114 619 +9 903
2017/10/29 104 716 -2 036
2017/10/28 106 752 +2 288
2017/10/27 104 464 -3 049
2017/10/26 107 513 +3 567
2017/10/25 103 946 +2 506
2017/10/24 101 440 -1 087
2017/10/23 102 527 -885
2017/10/22 103 412 +1 335
2017/10/21 102 077 +1 922
2017/10/20 100 155 -2 475
2017/10/19 102 630 +469
2017/10/18 102 161 -2 153
2017/10/17 104 314 +17
2017/10/16 104 297 +3 622
2017/10/14 100 675 -1 214
2017/10/13 101 889 -2 582
2017/10/12 104 471 -2 807
2017/10/11 107 278 +6 276
2017/10/10 101 002 -1 384
2017/10/09 102 386 -1 474
2017/10/08 103 860 +1 445
2017/10/07 102 415

WIDGET FOR YOUR SITE

DOMAINS WITH THE NEAREST RANK

Domain Rank
p9b.space 128 129
journaldesfemmes.fr 128 130
smartandfinal.com 128 131
themustave.com 128 132
financial-calculators.com 128 133
e-bos.jp 128 134
phonerotica.com 128 135
cyberbiz.co 128 136
dailytrend.mx 128 137
ilmusipil.com 128 138
lotoluck.com 128 139

DOMAINS WITH THE NEAREST RANK BY TLD .jp

Domain Rank
careerjet.jp 127 182
furien.jp 127 464
kanno-novel.jp 127 476
cartier.jp 127 525
hr-s.jp 127 982
e-bos.jp 128 134
keywordmap.jp 128 179
poney.jp 128 189
her.jp 128 316
fumiiro.jp 128 317
totoone.jp 128 372